Time;durP1;ratioP1;P1;durP2;ratioP2;P2;SDS_P1;SDS_P2;PMS_P1;PMS_P2;Temp;Humidity;BMP_temperature;BMP_pressure;BME280_temperature;BME280_humidity;BME280_pressure;Samples;Min_cycle;Max_cycle;Signal;HPM_P1;HPM_P2
2021/04/04 00:00:21;;;;;;;0.85;0.85;;;;;;;8.35;84.14;98393.59;4978855;28;20034;-89
2021/04/04 00:02:47;;;;;;;0.68;0.68;;;;;;;8.79;85.54;98470.03;4978625;28;20041;-90
2021/04/04 00:05:13;;;;;;;0.28;0.28;;;;;;;8.25;84.63;98392.63;4978625;28;20030;-91
2021/04/04 00:07:40;;;;;;;0.57;0.57;;;;;;;8.41;83.16;98420.19;4978252;28;20030;-91
2021/04/04 00:10:07;;;;;;;2.35;1.30;;;;;;;8.65;81.81;98467.63;4978633;28;20113;-95
2021/04/04 00:12:33;;;;;;;0.20;0.20;;;;;;;8.48;82.41;98447.56;4978378;28;20064;-91
2021/04/04 00:14:59;;;;;;;0.40;0.40;;;;;;;8.50;81.40;98472.66;4978288;28;20058;-92
2021/04/04 00:17:24;;;;;;;0.30;0.30;;;;;;;8.45;79.89;98464.13;4978466;28;20030;-93
2021/04/04 00:19:50;;;;;;;1.02;1.02;;;;;;;8.27;82.64;98430.69;4978313;28;20022;-93
2021/04/04 00:22:15;;;;;;;0.20;0.20;;;;;;;8.16;82.68;98442.72;4978359;28;20034;-91
2021/04/04 00:24:41;;;;;;;0.20;0.20;;;;;;;8.46;82.30;98476.72;4978737;28;20022;-93
2021/04/04 00:27:06;;;;;;;1.08;1.08;;;;;;;8.44;81.89;98468.88;4978440;28;20061;-93
2021/04/04 00:29:32;;;;;;;0.50;0.50;;;;;;;8.28;82.98;98451.53;4978230;28;20117;-93
2021/04/04 00:31:57;;;;;;;0.20;0.20;;;;;;;8.10;81.83;98443.66;4978068;28;20033;-95
2021/04/04 00:34:23;;;;;;;0.30;0.30;;;;;;;7.89;83.60;98433.13;4978056;28;20384;-95
2021/04/04 00:36:50;;;;;;;0.20;0.20;;;;;;;7.79;83.33;98432.13;4978194;28;20030;-94
2021/04/04 00:39:15;;;;;;;0.40;0.40;;;;;;;7.70;82.73;98407.97;4978112;28;20120;-95
2021/04/04 00:41:41;;;;;;;0.77;0.77;;;;;;;7.56;83.60;98399.22;4978210;28;20065;-95
2021/04/04 00:44:08;;;;;;;0.20;0.20;;;;;;;7.64;83.26;98411.63;4981350;28;20116;-96
2021/04/04 00:46:34;;;;;;;0.20;0.20;;;;;;;7.61;83.61;98406.97;4998214;28;20092;-94
2021/04/04 00:48:59;;;;;;;0.98;0.45;;;;;;;7.59;84.04;98434.91;4997348;28;20026;-96
2021/04/04 00:51:26;;;;;;;0.20;0.20;;;;;;;7.58;83.43;98438.84;4997645;28;20401;-95
2021/04/04 00:53:52;;;;;;;0.28;0.28;;;;;;;7.55;83.93;98447.13;4997482;28;20030;-96
2021/04/04 00:56:18;;;;;;;0.28;0.22;;;;;;;7.45;83.61;98412.38;4997307;28;20494;-94
2021/04/04 00:58:44;;;;;;;0.20;0.20;;;;;;;7.92;83.89;98493.53;4997142;28;20097;-93
2021/04/04 01:01:10;;;;;;;0.20;0.20;;;;;;;7.69;84.05;98464.16;4997124;28;20505;-91
2021/04/04 01:03:36;;;;;;;0.30;0.30;;;;;;;7.92;83.59;98488.03;4997054;28;20026;-92
2021/04/04 01:06:07;;;;;;;0.30;0.30;;;;;;;7.80;83.33;98482.41;4997121;28;20036;-91
2021/04/04 01:08:36;;;;;;;0.20;0.20;;;;;;;7.70;82.71;98454.69;4997073;28;20113;-89
2021/04/04 01:11:03;;;;;;;0.57;0.57;;;;;;;7.78;83.46;98451.81;4997086;28;20032;-91
2021/04/04 01:13:41;;;;;;;0.20;0.20;;;;;;;7.66;81.82;98442.19;4996868;28;20036;-90
2021/04/04 01:16:17;;;;;;;0.20;0.20;;;;;;;7.80;83.31;98471.41;4997087;28;20359;-92
2021/04/04 01:18:58;;;;;;;0.20;0.20;;;;;;;7.58;84.98;98455.34;4997202;28;20038;-92
2021/04/04 01:21:30;;;;;;;0.20;0.20;;;;;;;7.79;84.48;98489.88;4996771;28;20026;-91
2021/04/04 01:24:17;;;;;;;0.20;0.20;;;;;;;7.57;84.16;98456.53;4996676;28;20034;-92
2021/04/04 01:27:03;;;;;;;0.20;0.20;;;;;;;7.90;83.08;98509.69;5013488;28;20413;-93
2021/04/04 01:29:31;;;;;;;0.20;0.20;;;;;;;7.92;84.11;98515.56;4996971;28;20264;-92
2021/04/04 01:31:57;;;;;;;0.20;0.20;;;;;;;7.61;83.62;98462.72;4996610;28;20026;-91
2021/04/04 01:34:25;;;;;;;0.20;0.20;;;;;;;7.71;82.04;98470.00;4996416;28;20417;-92
2021/04/04 01:36:54;;;;;;;0.20;0.20;;;;;;;7.56;82.15;98463.22;4996441;28;20057;-92
2021/04/04 01:39:22;;;;;;;0.20;0.20;;;;;;;7.52;83.78;98459.00;4996478;28;20069;-88
2021/04/04 01:41:49;;;;;;;;;;;;;;;7.76;83.92;98499.75;4996781;28;20092;-92
2021/04/04 01:44:19;;;;;;;0.20;0.20;;;;;;;7.30;82.57;98448.38;4992743;28;20381;-91
2021/04/04 01:46:49;;;;;;;0.30;0.30;;;;;;;7.27;82.19;98457.47;4993107;28;20022;-92
2021/04/04 01:49:16;;;;;;;0.20;0.20;;;;;;;7.70;84.70;98503.41;4993042;28;20038;-93
2021/04/04 01:51:44;;;;;;;0.53;0.53;;;;;;;7.69;82.92;98510.88;4993508;28;20027;-94
2021/04/04 01:54:11;;;;;;;0.20;0.20;;;;;;;7.69;81.38;98507.38;4993092;28;20521;-94
2021/04/04 01:56:37;;;;;;;0.83;0.83;;;;;;;7.38;82.26;98476.50;5009235;28;20081;-93
2021/04/04 01:59:04;;;;;;;0.20;0.20;;;;;;;7.28;82.05;98466.50;4993066;28;20027;-94
2021/04/04 02:01:31;;;;;;;0.20;0.20;;;;;;;7.34;81.31;98460.09;4992930;28;20033;-90
2021/04/04 02:03:59;;;;;;;0.20;0.20;;;;;;;7.27;82.23;98462.97;4992729;28;20026;-90
2021/04/04 02:06:25;;;;;;;0.22;0.22;;;;;;;7.18;83.17;98445.47;4992723;28;20023;-92
2021/04/04 02:08:51;;;;;;;0.20;0.20;;;;;;;7.43;80.94;98492.50;4992712;28;20034;-92
2021/04/04 02:11:19;;;;;;;0.45;0.45;;;;;;;7.67;80.97;98535.28;4992778;28;20490;-91
2021/04/04 02:13:46;;;;;;;0.20;0.20;;;;;;;7.24;81.58;98461.06;4992764;28;20031;-90
2021/04/04 02:16:12;;;;;;;0.50;0.50;;;;;;;7.58;82.68;98506.78;4992537;28;20041;-93
2021/04/04 02:18:42;;;;;;;0.20;0.20;;;;;;;6.99;80.02;98427.78;4992716;28;20034;-90
2021/04/04 02:21:08;;;;;;;0.43;0.43;;;;;;;7.49;79.73;98509.28;4992559;28;20121;-91
2021/04/04 02:23:34;;;;;;;0.20;0.20;;;;;;;7.47;80.48;98495.22;4992753;28;20030;-92
2021/04/04 02:25:59;;;;;;;0.20;0.20;;;;;;;7.30;81.06;98481.34;5008737;28;20030;-94
2021/04/04 02:28:25;;;;;;;0.20;0.20;;;;;;;7.26;80.58;98468.88;5009046;28;20098;-91
2021/04/04 02:30:52;;;;;;;0.57;0.57;;;;;;;7.52;80.48;98491.97;4992696;28;20113;-91
2021/04/04 02:33:23;;;;;;;0.20;0.20;;;;;;;7.54;79.13;98522.56;4992563;28;20422;-90
2021/04/04 02:35:53;;;;;;;0.35;0.35;;;;;;;7.25;79.06;98461.81;4992721;28;20172;-92
2021/04/04 02:38:25;;;;;;;0.20;0.20;;;;;;;7.27;79.23;98460.22;4992636;28;20124;-93
2021/04/04 02:40:53;;;;;;;0.20;0.20;;;;;;;7.23;79.94;98464.25;4992597;28;20069;-91
2021/04/04 02:43:26;;;;;;;0.65;0.65;;;;;;;7.56;79.21;98517.41;4992380;28;20117;-90
2021/04/04 02:45:54;;;;;;;0.52;0.52;;;;;;;7.18;79.36;98454.47;4992371;28;20054;-93
2021/04/04 02:48:27;;;;;;;0.75;0.75;;;;;;;7.50;79.11;98483.38;4993024;28;20113;-95
2021/04/04 02:50:56;;;;;;;0.30;0.30;;;;;;;7.56;77.88;98509.94;5009151;28;20041;-93
2021/04/04 02:53:24;;;;;;;0.20;0.20;;;;;;;7.50;79.56;98491.63;4992411;28;20027;-96
2021/04/04 02:55:52;;;;;;;0.20;0.20;;;;;;;7.22;79.40;98451.69;4992316;28;20037;-93
2021/04/04 02:58:18;;;;;;;;;;;;;;;7.60;79.81;98507.13;4992923;28;20409;-96
2021/04/04 03:00:44;;;;;;;0.30;0.30;;;;;;;7.17;79.11;98457.69;4992649;28;20381;-96
2021/04/04 03:03:11;;;;;;;0.20;0.20;;;;;;;7.30;78.04;98470.38;4992242;28;20065;-93
2021/04/04 03:05:38;;;;;;;0.70;0.70;;;;;;;7.40;78.05;98493.38;4992260;28;20041;-93
2021/04/04 03:08:07;;;;;;;0.20;0.20;;;;;;;7.43;79.35;98489.00;4992210;28;20041;-95
2021/04/04 03:10:33;;;;;;;0.22;0.22;;;;;;;7.18;78.15;98456.44;4992194;28;20034;-95
2021/04/04 03:12:59;;;;;;;1.65;1.52;;;;;;;7.49;79.30;98510.06;4992714;28;20173;-93
2021/04/04 03:15:29;;;;;;;0.30;0.30;;;;;;;7.49;79.63;98501.81;4992162;28;20030;-96
2021/04/04 03:17:56;;;;;;;0.20;0.20;;;;;;;7.47;80.33;98501.50;4992278;28;20030;-94
2021/04/04 03:20:22;;;;;;;0.40;0.40;;;;;;;7.40;81.14;98482.38;4992168;28;20140;-93
2021/04/04 03:22:49;;;;;;;0.20;0.20;;;;;;;7.20;80.04;98462.31;4992139;28;20018;-94
2021/04/04 03:25:17;;;;;;;0.40;0.40;;;;;;;7.02;79.47;98448.88;4992025;28;20026;-95
2021/04/04 03:27:44;;;;;;;;;;;;;;;7.52;79.49;98516.72;5008921;28;20026;-93
2021/04/04 03:30:34;;;;;;;0.20;0.20;;;;;;;7.35;80.62;98494.59;4994450;28;19917;-94
2021/04/04 03:32:59;;;;;;;1.85;0.47;;;;;;;7.34;79.50;98503.28;4996043;28;20049;-93
2021/04/04 03:35:25;;;;;;;0.73;0.73;;;;;;;7.10;80.02;98444.06;4995571;28;20027;-95
2021/04/04 03:37:52;;;;;;;0.20;0.20;;;;;;;7.08;79.35;98447.22;5012025;28;20035;-95
2021/04/04 03:40:18;;;;;;;0.32;0.32;;;;;;;7.17;78.11;98476.91;4995416;28;20030;-93
2021/04/04 03:42:45;;;;;;;0.30;0.30;;;;;;;7.46;79.22;98527.41;4995637;28;20041;-95
2021/04/04 03:45:13;;;;;;;0.25;0.25;;;;;;;7.23;79.32;98481.47;4994955;28;20085;-95
2021/04/04 03:47:39;;;;;;;0.75;0.75;;;;;;;7.07;78.58;98436.63;4995578;28;20023;-96
2021/04/04 03:50:08;;;;;;;0.22;0.22;;;;;;;7.29;78.88;98470.81;4995174;28;20034;-93
2021/04/04 03:52:35;;;;;;;0.20;0.20;;;;;;;7.24;77.62;98463.03;4995230;28;20552;-93
2021/04/04 03:55:01;;;;;;;0.28;0.28;;;;;;;7.47;79.13;98530.94;4995239;28;20050;-93
2021/04/04 03:57:27;;;;;;;1.00;1.00;;;;;;;7.25;77.10;98467.31;4995106;28;20034;-94
2021/04/04 03:59:55;;;;;;;0.20;0.20;;;;;;;7.27;77.50;98487.69;4995082;28;20034;-92
2021/04/04 04:02:24;;;;;;;0.20;0.20;;;;;;;7.32;77.54;98491.94;4994999;28;20027;-94
2021/04/04 04:04:50;;;;;;;0.20;0.20;;;;;;;7.49;77.55;98523.03;4994912;28;20022;-93
2021/04/04 04:07:17;;;;;;;0.20;0.20;;;;;;;7.65;77.21;98526.69;4994743;28;20133;-90
2021/04/04 04:09:42;;;;;;;0.20;0.20;;;;;;;7.36;77.63;98490.66;4994934;28;20030;-91
2021/04/04 04:12:08;;;;;;;0.30;0.30;;;;;;;7.64;77.21;98524.34;4994781;28;20044;-90
2021/04/04 04:14:36;;;;;;;0.20;0.20;;;;;;;7.43;76.73;98495.25;4994869;28;20037;-89
2021/04/04 04:17:05;;;;;;;0.25;0.25;;;;;;;7.36;77.51;98482.41;4994751;28;20026;-92
2021/04/04 04:19:31;;;;;;;0.65;0.65;;;;;;;7.12;76.37;98458.13;4994503;28;20581;-91
2021/04/04 04:21:57;;;;;;;0.93;0.93;;;;;;;7.63;76.11;98542.03;4994572;28;20034;-92
2021/04/04 04:24:24;;;;;;;0.20;0.20;;;;;;;7.26;75.78;98488.91;5010984;28;20027;-94
2021/04/04 04:26:50;;;;;;;0.47;0.47;;;;;;;7.26;77.60;98477.13;4994425;28;20039;-94
2021/04/04 04:29:19;;;;;;;0.20;0.20;;;;;;;7.41;76.82;98494.94;4994570;28;20117;-94
2021/04/04 04:31:46;;;;;;;;;;;;;;;7.70;77.25;98545.44;4994880;28;20042;-94
2021/04/04 04:34:12;;;;;;;0.30;0.30;;;;;;;7.43;76.16;98506.25;4994016;28;19913;-93
2021/04/04 04:36:39;;;;;;;0.47;0.47;;;;;;;7.67;75.77;98546.28;4994625;28;20041;-95
2021/04/04 04:39:07;;;;;;;0.70;0.70;;;;;;;7.19;76.22;98474.50;4994325;28;20093;-93
2021/04/04 04:41:33;;;;;;;;;;;;;;;7.74;76.15;98542.63;4994198;28;20105;-95
2021/04/04 04:44:01;;;;;;;0.20;0.20;;;;;;;7.56;77.13;98523.69;4995979;28;19957;-93
2021/04/04 04:46:27;;;;;;;;;;;;;;;7.72;76.39;98547.75;4997907;28;20405;-92
2021/04/04 04:48:53;;;;;;;0.60;0.60;;;;;;;7.70;77.74;98552.91;4997494;28;19913;-89
2021/04/04 04:51:21;;;;;;;0.50;0.50;;;;;;;7.44;76.44;98499.56;4997358;28;20034;-92
2021/04/04 04:53:48;;;;;;;0.55;0.55;;;;;;;7.69;76.96;98532.09;4997263;28;20493;-94
2021/04/04 04:56:14;;;;;;;1.15;1.15;;;;;;;7.29;76.74;98490.03;4997327;28;20508;-93
2021/04/04 04:58:41;;;;;;;0.75;0.73;;;;;;;7.17;76.00;98460.41;4999637;28;20029;-95
2021/04/04 05:01:10;;;;;;;0.20;0.20;;;;;;;7.53;76.85;98490.78;4998942;28;20085;-94
2021/04/04 05:03:35;;;;;;;0.57;0.57;;;;;;;7.69;75.37;98524.63;4997121;28;20117;-94
2021/04/04 05:06:05;;;;;;;0.20;0.20;;;;;;;7.64;76.26;98499.59;4997088;28;20620;-95
2021/04/04 05:08:33;;;;;;;0.52;0.50;;;;;;;8.14;75.56;98573.69;4997137;28;20076;-93
2021/04/04 05:11:03;;;;;;;0.80;0.80;;;;;;;7.78;77.57;98498.56;4997028;28;20083;-93
2021/04/04 05:13:31;;;;;;;0.50;0.50;;;;;;;8.02;75.88;98539.31;4996794;28;20096;-94
2021/04/04 05:15:57;;;;;;;0.60;0.60;;;;;;;8.12;76.58;98557.59;4997184;28;20068;-95
2021/04/04 05:18:22;;;;;;;1.38;1.10;;;;;;;8.09;77.87;98555.69;4998195;28;20116;-93
2021/04/04 05:20:48;;;;;;;0.30;0.30;;;;;;;7.96;77.58;98526.47;4997429;28;20556;-94
2021/04/04 05:23:21;;;;;;;0.30;0.30;;;;;;;7.85;77.83;98529.44;4997146;28;20559;-91
2021/04/04 05:25:48;;;;;;;0.30;0.30;;;;;;;8.01;78.13;98534.25;4996791;28;20033;-94
2021/04/04 05:28:13;;;;;;;0.50;0.50;;;;;;;8.18;76.59;98557.88;4996584;28;20120;-90
2021/04/04 05:30:39;;;;;;;0.20;0.20;;;;;;;7.75;77.43;98502.94;4996584;28;20034;-92
2021/04/04 05:33:05;;;;;;;1.67;0.65;;;;;;;8.18;77.51;98572.44;4996462;28;20026;-88
2021/04/04 05:35:37;;;;;;;0.85;0.73;;;;;;;7.83;76.80;98498.06;4996406;28;20108;-88
2021/04/04 05:38:03;;;;;;;0.75;0.75;;;;;;;8.23;77.43;98562.13;4996320;28;20055;-89
2021/04/04 05:40:30;;;;;;;0.82;0.82;;;;;;;8.11;76.67;98547.78;4996302;28;20033;-90
2021/04/04 05:43:01;;;;;;;1.88;1.70;;;;;;;8.07;76.20;98557.31;4996448;28;20461;-90
2021/04/04 05:45:35;;;;;;;0.40;0.40;;;;;;;7.86;76.10;98524.72;4992892;28;20556;-92
2021/04/04 05:48:19;;;;;;;0.80;0.80;;;;;;;7.83;76.26;98509.84;4993297;28;20026;-90
2021/04/04 05:51:15;;;;;;;0.50;0.50;;;;;;;8.28;76.62;98558.88;4993121;28;20030;-91
2021/04/04 05:53:47;;;;;;;0.40;0.40;;;;;;;7.97;77.54;98512.31;4993781;28;20026;-91
2021/04/04 05:56:31;;;;;;;1.33;1.33;;;;;;;8.21;76.94;98559.00;5008495;28;20474;-87
2021/04/04 05:59:04;;;;;;;0.68;0.68;;;;;;;7.94;75.28;98512.38;4992831;28;20026;-89
2021/04/04 06:01:32;;;;;;;0.95;0.95;;;;;;;8.33;75.26;98575.69;4992434;28;20027;-85
2021/04/04 06:04:34;;;;;;;6.25;2.28;;;;;;;8.52;76.26;98574.13;5008896;28;20125;-84
2021/04/04 06:07:24;;;;;;;1.15;1.13;;;;;;;8.17;75.43;98513.09;5008913;28;20122;-86
2021/04/04 06:10:01;;;;;;;3.13;2.08;;;;;;;8.58;75.66;98540.16;4992192;28;20030;-87
2021/04/04 06:13:02;;;;;;;4.47;1.70;;;;;;;8.88;75.16;98574.91;4992847;28;20030;-86
2021/04/04 06:16:05;;;;;;;0.65;0.65;;;;;;;9.15;74.16;98576.66;4992468;28;20026;-86
2021/04/04 06:19:05;;;;;;;2.10;1.90;;;;;;;9.11;73.03;98575.94;5008726;28;20030;-86
2021/04/04 06:21:59;;;;;;;5.85;2.33;;;;;;;8.80;73.13;98536.94;4992695;28;20478;-82
2021/04/04 06:24:45;;;;;;;4.40;1.73;;;;;;;9.15;74.80;98579.41;4992597;28;20057;-84
2021/04/04 06:27:45;;;;;;;1.40;0.98;;;;;;;9.30;73.09;98591.66;4992882;28;20462;-84
2021/04/04 06:33:08;;;;;;;0.68;0.68;;;;;;;8.99;72.26;98619.50;4993462;28;20033;-86
2021/04/04 06:35:50;;;;;;;1.50;1.40;;;;;;;8.95;73.16;98601.50;4995227;28;20034;-85
2021/04/04 06:39:03;;;;;;;4.57;2.92;;;;;;;8.89;74.32;98620.53;4992757;28;20030;-84
2021/04/04 06:41:34;;;;;;;2.10;1.00;;;;;;;8.81;74.06;98634.88;4992230;28;20470;-86
2021/04/04 06:44:09;;;;;;;1.38;1.08;;;;;;;8.48;75.03;98593.47;5010310;28;20050;-85
2021/04/04 06:47:02;;;;;;;0.73;0.73;;;;;;;8.62;76.08;98625.44;4995787;28;20026;-85
2021/04/04 06:49:55;;;;;;;0.68;0.68;;;;;;;8.36;74.65;98615.38;4995178;28;20089;-86
2021/04/04 06:52:32;;;;;;;0.80;0.80;;;;;;;8.27;75.09;98607.63;4996079;28;20048;-86
2021/04/04 06:55:04;;;;;;;0.20;0.20;;;;;;;8.15;75.12;98581.50;4995447;28;20030;-85
2021/04/04 06:57:53;;;;;;;0.65;0.65;;;;;;;8.53;74.29;98644.50;4995102;28;20030;-85
2021/04/04 07:00:26;;;;;;;0.60;0.60;;;;;;;8.47;75.04;98629.69;4959255;28;20041;-83
2021/04/04 07:03:07;;;;;;;1.17;1.17;;;;;;;8.35;75.12;98600.81;4995570;28;20029;-81
2021/04/04 07:05:55;;;;;;;1.02;0.93;;;;;;;8.65;73.86;98616.34;4998976;28;20029;-89
2021/04/04 07:08:55;;;;;;;0.60;0.60;;;;;;;8.80;73.04;98641.63;4997966;28;20034;-82
2021/04/04 07:11:32;;;;;;;0.93;0.93;;;;;;;8.73;74.06;98633.50;5016293;28;20108;-84
2021/04/04 07:14:13;;;;;;;0.57;0.57;;;;;;;8.88;74.38;98652.03;4998792;28;20045;-84
2021/04/04 07:17:26;;;;;;;0.70;0.70;;;;;;;9.00;71.75;98636.81;4998709;28;20037;-81
2021/04/04 07:20:22;;;;;;;0.40;0.40;;;;;;;8.99;72.56;98594.72;4939736;28;20033;-81
2021/04/04 07:23:23;;;;;;;2.53;2.30;;;;;;;9.32;72.50;98663.69;5014555;28;20125;-81
2021/04/04 07:25:57;;;;;;;0.90;0.90;;;;;;;9.46;71.41;98619.25;4976503;28;20585;-81
2021/04/04 07:29:04;;;;;;;2.60;2.45;;;;;;;9.86;69.86;98654.91;4998955;28;20057;-81
2021/04/04 07:31:37;;;;;;;0.73;0.70;;;;;;;9.92;68.48;98636.63;4998656;28;20034;-82
2021/04/04 07:34:16;;;;;;;3.63;0.80;;;;;;;10.09;68.79;98649.94;4997763;28;20076;-81
2021/04/04 07:36:57;;;;;;;1.00;1.00;;;;;;;10.03;66.30;98646.16;4998125;28;20029;-81
2021/04/04 07:39:45;;;;;;;0.40;0.40;;;;;;;9.79;67.25;98604.22;4998634;28;20034;-84
2021/04/04 07:42:20;;;;;;;0.88;0.88;;;;;;;10.12;67.05;98631.75;4998167;28;20037;-85
2021/04/04 07:44:47;;;;;;;0.95;0.95;;;;;;;9.87;67.10;98604.03;4994658;28;20078;-84
2021/04/04 07:47:56;;;;;;;0.20;0.20;;;;;;;10.25;66.39;98654.69;5011292;28;20026;-84
2021/04/04 07:50:27;;;;;;;0.35;0.35;;;;;;;10.09;66.64;98627.09;4978049;28;20042;-84
2021/04/04 07:53:11;;;;;;;1.60;0.70;;;;;;;10.29;66.19;98662.88;5011378;28;20040;-82
2021/04/04 07:56:13;;;;;;;0.20;0.20;;;;;;;10.12;67.08;98618.72;5012004;28;20034;-82
2021/04/04 07:58:47;;;;;;;0.55;0.55;;;;;;;10.08;67.35;98607.00;4994142;28;20030;-82
2021/04/04 08:01:33;;;;;;;0.73;0.73;;;;;;;10.20;67.41;98625.63;4993888;28;20026;-83
2021/04/04 08:04:14;;;;;;;0.80;0.80;;;;;;;10.15;67.49;98570.91;4992693;28;20262;-82
2021/04/04 08:07:02;;;;;;;1.08;0.98;;;;;;;10.51;65.17;98648.06;4992888;28;20038;-83
2021/04/04 08:09:42;;;;;;;0.28;0.28;;;;;;;10.46;66.04;98642.28;4993632;28;20482;-83
2021/04/04 08:12:26;;;;;;;0.35;0.35;;;;;;;10.45;65.75;98638.75;5009932;28;20057;-83
2021/04/04 08:15:01;;;;;;;0.80;0.80;;;;;;;10.24;67.59;98584.13;4993566;28;20164;-82
2021/04/04 08:17:26;;;;;;;0.50;0.50;;;;;;;10.57;66.49;98642.75;4994949;28;20045;-82
2021/04/04 08:20:04;;;;;;;0.45;0.45;;;;;;;9.97;66.33;98564.31;4994629;28;20022;-83
2021/04/04 08:22:33;;;;;;;1.30;1.20;;;;;;;10.39;66.83;98642.47;5011051;28;20092;-83
2021/04/04 08:25:44;;;;;;;0.40;0.40;;;;;;;10.45;66.55;98630.47;4994424;28;20030;-83
2021/04/04 08:28:43;;;;;;;0.75;0.75;;;;;;;10.32;66.70;98637.94;4975052;28;20035;-83
2021/04/04 08:31:23;;;;;;;0.63;0.63;;;;;;;9.99;66.72;98611.59;4963610;28;20034;-83
2021/04/04 08:34:32;;;;;;;2.22;1.55;;;;;;;10.10;66.69;98639.69;4994401;28;20027;-80
2021/04/04 08:37:02;;;;;;;1.70;1.00;;;;;;;9.88;66.81;98591.78;4938068;28;20034;-82
2021/04/04 08:39:31;;;;;;;1.80;1.63;;;;;;;10.33;66.38;98647.75;4995133;28;20046;-83
2021/04/04 08:42:00;;;;;;;0.55;0.55;;;;;;;10.40;67.03;98617.19;4994168;28;20019;-82
2021/04/04 08:44:49;;;;;;;1.23;1.23;;;;;;;10.47;65.30;98580.31;4993846;28;20047;-82
2021/04/04 08:47:20;;;;;;;2.17;1.83;;;;;;;10.72;64.34;98593.41;4996379;28;20498;-82
2021/04/04 08:49:47;;;;;;;1.42;1.38;;;;;;;10.81;63.36;98619.16;5010248;28;20126;-84
2021/04/04 08:52:17;;;;;;;0.43;0.43;;;;;;;10.73;63.14;98609.53;4992193;28;20117;-83
2021/04/04 08:54:46;;;;;;;4.35;2.22;;;;;;;11.09;62.25;98622.31;4992414;28;20094;-82
2021/04/04 08:57:12;;;;;;;1.13;1.02;;;;;;;11.02;62.14;98579.84;4992378;28;20057;-83
2021/04/04 08:59:38;;;;;;;1.48;1.48;;;;;;;11.48;62.37;98623.84;4992152;28;20042;-82
2021/04/04 09:02:07;;;;;;;1.60;1.55;;;;;;;11.07;62.61;98544.56;4993598;28;20045;-83
2021/04/04 09:04:40;;;;;;;1.52;1.48;;;;;;;11.74;61.54;98631.69;4993756;28;20026;-83
2021/04/04 09:07:08;;;;;;;0.20;0.20;;;;;;;11.91;61.61;98632.31;4993803;28;20117;-83
2021/04/04 09:09:40;;;;;;;1.77;1.67;;;;;;;11.56;61.78;98567.06;4993700;28;20092;-84
2021/04/04 09:12:07;;;;;;;2.35;1.30;;;;;;;12.13;61.10;98610.19;4994124;28;20196;-85
2021/04/04 09:14:35;;;;;;;1.90;1.77;;;;;;;11.85;60.21;98575.97;4997006;28;20041;-80
2021/04/04 09:17:06;;;;;;;1.50;1.42;;;;;;;12.06;58.42;98591.84;4993278;28;20035;-81
2021/04/04 09:19:34;;;;;;;1.85;1.75;;;;;;;11.88;59.74;98539.06;5009515;28;20097;-81
2021/04/04 09:22:05;;;;;;;3.03;1.17;;;;;;;12.08;64.24;98577.53;4993304;28;20026;-80
2021/04/04 09:24:39;;;;;;;2.58;1.50;;;;;;;11.71;64.09;98545.97;4993355;28;20034;-80
2021/04/04 09:27:10;;;;;;;0.47;0.47;;;;;;;11.90;65.33;98605.84;4993388;28;20026;-79
2021/04/04 09:29:35;;;;;;;4.00;2.58;;;;;;;11.50;65.57;98599.28;5009423;28;20479;-80
2021/04/04 09:32:09;;;;;;;1.02;1.02;;;;;;;11.34;65.30;98589.88;4992461;28;20041;-81
2021/04/04 09:34:36;;;;;;;3.72;1.27;;;;;;;11.22;65.81;98585.13;4993067;28;20040;-81
2021/04/04 09:37:02;;;;;;;0.90;0.90;;;;;;;11.18;66.46;98589.22;4993161;28;20026;-81
2021/04/04 09:39:30;;;;;;;1.30;1.20;;;;;;;10.90;66.82;98535.59;4992796;28;20030;-86
2021/04/04 09:41:59;;;;;;;0.20;0.20;;;;;;;11.08;66.07;98555.19;4993161;28;20117;-85
2021/04/04 09:44:28;;;;;;;;;;;;;;;11.24;66.57;98582.69;4992926;28;20058;-86
2021/04/04 09:46:55;;;;;;;0.68;0.68;;;;;;;10.83;66.33;98558.72;4992683;28;19979;-87
2021/04/04 09:49:44;;;;;;;2.00;1.53;;;;;;;10.74;67.64;98544.75;5009382;28;20088;-86
2021/04/04 09:52:24;;;;;;;0.47;0.47;;;;;;;10.49;68.34;98562.06;4992864;28;20025;-86
2021/04/04 09:55:14;;;;;;;2.45;2.35;;;;;;;10.06;68.62;98523.09;5008773;28;20038;-87
2021/04/04 09:57:52;;;;;;;1.55;1.45;;;;;;;10.30;70.19;98579.63;5008837;28;20054;-85
2021/04/04 10:00:34;;;;;;;1.38;1.33;;;;;;;10.59;72.16;98579.56;4992859;28;20062;-85
2021/04/04 10:03:20;;;;;;;1.65;0.88;;;;;;;10.57;73.47;98571.72;4992625;28;20050;-84
2021/04/04 10:05:47;;;;;;;1.73;1.63;;;;;;;10.49;71.40;98539.97;4990354;28;20035;-85
2021/04/04 10:08:14;;;;;;;1.40;1.40;;;;;;;10.98;71.21;98570.88;4992670;28;20800;-84
2021/04/04 10:11:11;;;;;;;0.82;0.82;;;;;;;10.94;70.02;98548.09;4999147;28;20034;-86
2021/04/04 10:13:37;;;;;;;1.27;1.27;;;;;;;10.59;70.05;98524.31;4979418;28;20038;-86
2021/04/04 10:16:22;;;;;;;10.75;2.08;;;;;;;10.84;71.14;98579.59;4992092;28;20034;-86
2021/04/04 10:19:08;;;;;;;2.92;2.03;;;;;;;10.80;72.49;98553.28;4992721;28;20124;-86
2021/04/04 10:21:36;;;;;;;3.13;0.93;;;;;;;10.91;70.74;98551.72;4992238;28;20169;-85
2021/04/04 10:24:20;;;;;;;;;;;;;;;11.25;71.27;98586.25;5009082;28;20836;-86
2021/04/04 10:26:46;;;;;;;1.40;1.40;;;;;;;11.09;69.57;98570.53;4992865;28;19933;-85
2021/04/04 10:29:19;;;;;;;0.55;0.55;;;;;;;10.76;69.18;98519.47;4992610;28;20030;-85
2021/04/04 10:31:48;;;;;;;0.45;0.45;;;;;;;11.15;68.32;98546.63;4992926;28;20030;-86
2021/04/04 10:34:13;;;;;;;;;;;;;;;11.42;68.28;98584.88;4992617;28;20037;-86
2021/04/04 10:36:38;;;;;;;0.85;0.85;;;;;;;11.16;68.58;98575.06;4992667;28;19921;-86
2021/04/04 10:39:19;;;;;;;1.38;1.27;;;;;;;10.82;68.08;98557.16;4994987;28;20041;-87
2021/04/04 10:41:45;;;;;;;1.00;0.75;;;;;;;10.87;67.02;98591.75;4996051;28;20034;-87
2021/04/04 10:44:21;;;;;;;1.02;1.02;;;;;;;10.98;68.78;98589.44;4995837;28;20061;-86
2021/04/04 10:46:47;;;;;;;1.17;1.15;;;;;;;10.97;69.33;98585.91;4980097;28;20094;-85
2021/04/04 10:49:13;;;;;;;1.65;1.48;;;;;;;11.01;69.64;98589.34;4980041;28;20049;-86
2021/04/04 10:51:40;;;;;;;1.55;1.45;;;;;;;11.02;69.24;98565.25;4979906;28;20034;-87
2021/04/04 10:54:06;;;;;;;3.92;1.25;;;;;;;11.24;67.74;98591.00;4979811;28;20026;-86
2021/04/04 10:56:32;;;;;;;3.60;1.05;;;;;;;10.91;66.48;98504.00;4979801;28;20096;-87
2021/04/04 10:58:59;;;;;;;3.15;2.40;;;;;;;11.51;68.21;98595.28;4979935;28;20073;-86
2021/04/04 11:01:26;;;;;;;16.02;2.10;;;;;;;11.55;67.47;98568.28;4979815;28;20030;-86
2021/04/04 11:03:52;;;;;;;2.13;1.75;;;;;;;11.55;66.52;98563.50;4979753;28;20072;-87
2021/04/04 11:06:18;;;;;;;1.58;1.23;;;;;;;11.49;69.84;98559.00;4979374;28;20123;-86
2021/04/04 11:08:44;;;;;;;1.30;1.25;;;;;;;11.08;70.85;98532.28;4979872;28;20061;-86
2021/04/04 11:11:14;;;;;;;1.10;1.10;;;;;;;11.47;72.02;98589.84;4979224;28;20081;-87
2021/04/04 11:13:44;;;;;;;1.10;1.10;;;;;;;11.31;72.13;98574.19;4979386;28;20038;-85
2021/04/04 11:16:11;;;;;;;7.70;2.80;;;;;;;11.39;73.81;98566.44;4979410;28;20038;-85
2021/04/04 11:18:43;;;;;;;0.40;0.40;;;;;;;11.26;71.34;98535.25;4979546;28;20129;-85
2021/04/04 11:21:21;;;;;;;5.40;3.05;;;;;;;11.70;73.48;98566.56;4979688;28;20030;-85
2021/04/04 11:23:47;;;;;;;2.33;2.15;;;;;;;11.59;72.34;98574.44;4979356;28;20088;-85
2021/04/04 11:26:33;;;;;;;2.47;2.13;;;;;;;11.89;72.28;98581.38;4979411;28;20426;-84
2021/04/04 11:29:12;;;;;;;0.70;0.70;;;;;;;11.64;71.63;98524.84;4979409;28;20121;-85
2021/04/04 11:31:44;;;;;;;0.90;0.90;;;;;;;11.19;76.13;98554.81;4996560;28;20475;-85
2021/04/04 11:34:25;;;;;;;0.60;0.60;;;;;;;10.97;74.29;98524.34;4978791;28;20060;-85
2021/04/04 11:36:50;;;;;;;1.67;1.58;;;;;;;10.86;75.21;98501.75;4979098;28;20026;-86
2021/04/04 11:39:16;;;;;;;1.75;0.95;;;;;;;10.47;77.72;98534.13;4979214;28;20026;-86
2021/04/04 11:42:01;;;;;;;1.92;1.73;;;;;;;10.46;78.35;98504.97;4979159;28;20085;-85
2021/04/04 11:44:33;;;;;;;2.22;1.83;;;;;;;10.83;78.71;98580.03;4979242;28;20503;-86
2021/04/04 11:46:58;;;;;;;1.25;1.25;;;;;;;10.90;76.08;98569.56;4979518;28;20112;-85
2021/04/04 11:49:33;;;;;;;5.93;2.53;;;;;;;10.33;78.82;98514.44;4978223;28;20474;-85
2021/04/04 11:52:08;;;;;;;1.20;0.88;;;;;;;10.14;78.45;98539.00;4979714;28;20033;-86
2021/04/04 11:54:45;;;;;;;0.80;0.80;;;;;;;9.83;79.49;98515.81;4978892;28;20038;-87
2021/04/04 11:57:12;;;;;;;2.65;2.45;;;;;;;9.65;80.43;98546.63;4978862;28;20028;-85
2021/04/04 11:59:38;;;;;;;1.50;0.90;;;;;;;9.55;81.75;98538.63;4979392;28;20072;-85
2021/04/04 12:02:04;;;;;;;0.63;0.63;;;;;;;9.48;81.67;98539.59;4978512;28;20030;-88
2021/04/04 12:04:33;;;;;;;1.08;1.08;;;;;;;9.50;81.66;98564.00;4978565;28;20030;-85
2021/04/04 12:07:07;;;;;;;5.90;5.38;;;;;;;9.30;82.52;98556.59;4978585;28;20034;-86
2021/04/04 12:09:34;;;;;;;3.90;3.45;;;;;;;9.12;82.98;98566.47;4978282;28;20038;-89